sensor_id;sensor_type;location;lat;lon;timestamp;P1;durP1;ratioP1;P2;durP2;ratioP2
82230;SDS011;71832;45.138;9.816;2023-12-14T00:01:29;55.47;;;23.45;;
82230;SDS011;71832;45.138;9.816;2023-12-14T00:03:57;47.55;;;23.50;;
82230;SDS011;71832;45.138;9.816;2023-12-14T00:06:24;53.00;;;22.63;;
82230;SDS011;71832;45.138;9.816;2023-12-14T00:08:52;51.83;;;22.42;;
82230;SDS011;71832;45.138;9.816;2023-12-14T00:11:20;50.60;;;22.25;;
82230;SDS011;71832;45.138;9.816;2023-12-14T00:13:47;53.83;;;22.85;;
82230;SDS011;71832;45.138;9.816;2023-12-14T00:16:15;48.50;;;22.38;;
82230;SDS011;71832;45.138;9.816;2023-12-14T00:18:42;49.50;;;21.30;;
82230;SDS011;71832;45.138;9.816;2023-12-14T00:21:11;50.45;;;22.55;;
82230;SDS011;71832;45.138;9.816;2023-12-14T00:23:39;51.67;;;22.20;;
82230;SDS011;71832;45.138;9.816;2023-12-14T00:26:07;44.38;;;19.92;;
82230;SDS011;71832;45.138;9.816;2023-12-14T00:28:35;41.83;;;18.77;;
82230;SDS011;71832;45.138;9.816;2023-12-14T00:31:02;45.70;;;21.30;;
82230;SDS011;71832;45.138;9.816;2023-12-14T00:33:30;42.40;;;19.88;;
82230;SDS011;71832;45.138;9.816;2023-12-14T00:35:58;49.22;;;22.05;;
82230;SDS011;71832;45.138;9.816;2023-12-14T00:38:26;45.00;;;21.48;;
82230;SDS011;71832;45.138;9.816;2023-12-14T00:40:54;49.78;;;21.55;;
82230;SDS011;71832;45.138;9.816;2023-12-14T00:43:22;49.42;;;20.50;;
82230;SDS011;71832;45.138;9.816;2023-12-14T00:45:50;45.95;;;20.58;;
82230;SDS011;71832;45.138;9.816;2023-12-14T00:48:18;48.97;;;22.42;;
82230;SDS011;71832;45.138;9.816;2023-12-14T00:50:46;47.38;;;21.60;;
82230;SDS011;71832;45.138;9.816;2023-12-14T00:53:14;47.25;;;20.92;;
82230;SDS011;71832;45.138;9.816;2023-12-14T00:55:42;44.97;;;23.08;;
82230;SDS011;71832;45.138;9.816;2023-12-14T00:58:11;45.95;;;22.13;;
82230;SDS011;71832;45.138;9.816;2023-12-14T01:00:39;49.20;;;22.10;;
82230;SDS011;71832;45.138;9.816;2023-12-14T01:03:08;46.13;;;22.13;;
82230;SDS011;71832;45.138;9.816;2023-12-14T01:05:36;48.53;;;23.00;;
82230;SDS011;71832;45.138;9.816;2023-12-14T01:08:04;45.38;;;20.92;;
82230;SDS011;71832;45.138;9.816;2023-12-14T01:10:32;41.67;;;21.50;;
82230;SDS011;71832;45.138;9.816;2023-12-14T01:13:00;48.80;;;24.00;;
82230;SDS011;71832;45.138;9.816;2023-12-14T01:15:27;46.13;;;23.70;;
82230;SDS011;71832;45.138;9.816;2023-12-14T01:17:55;49.30;;;23.00;;
82230;SDS011;71832;45.138;9.816;2023-12-14T01:20:22;48.50;;;23.52;;
82230;SDS011;71832;45.138;9.816;2023-12-14T01:22:50;47.53;;;23.33;;
82230;SDS011;71832;45.138;9.816;2023-12-14T01:25:18;48.78;;;23.33;;
82230;SDS011;71832;45.138;9.816;2023-12-14T01:27:45;42.63;;;22.20;;
82230;SDS011;71832;45.138;9.816;2023-12-14T01:30:13;47.33;;;23.52;;
82230;SDS011;71832;45.138;9.816;2023-12-14T01:32:41;48.72;;;22.05;;
82230;SDS011;71832;45.138;9.816;2023-12-14T01:35:10;50.63;;;22.98;;
82230;SDS011;71832;45.138;9.816;2023-12-14T01:37:38;46.80;;;22.80;;
82230;SDS011;71832;45.138;9.816;2023-12-14T01:40:06;39.58;;;18.90;;
82230;SDS011;71832;45.138;9.816;2023-12-14T01:42:34;45.80;;;21.45;;
82230;SDS011;71832;45.138;9.816;2023-12-14T01:45:02;48.10;;;22.25;;
82230;SDS011;71832;45.138;9.816;2023-12-14T01:47:30;52.78;;;22.95;;
82230;SDS011;71832;45.138;9.816;2023-12-14T01:49:58;56.55;;;24.40;;
82230;SDS011;71832;45.138;9.816;2023-12-14T01:52:26;58.38;;;24.27;;
82230;SDS011;71832;45.138;9.816;2023-12-14T01:54:54;53.38;;;24.00;;
82230;SDS011;71832;45.138;9.816;2023-12-14T01:57:24;50.83;;;22.40;;
82230;SDS011;71832;45.138;9.816;2023-12-14T01:59:52;45.95;;;23.13;;
82230;SDS011;71832;45.138;9.816;2023-12-14T02:02:20;46.63;;;20.88;;
82230;SDS011;71832;45.138;9.816;2023-12-14T02:04:49;44.33;;;19.77;;
82230;SDS011;71832;45.138;9.816;2023-12-14T02:07:17;41.28;;;20.08;;
82230;SDS011;71832;45.138;9.816;2023-12-14T02:09:44;48.88;;;21.27;;
82230;SDS011;71832;45.138;9.816;2023-12-14T02:12:12;46.78;;;22.13;;
82230;SDS011;71832;45.138;9.816;2023-12-14T02:14:40;46.70;;;21.75;;
82230;SDS011;71832;45.138;9.816;2023-12-14T02:17:08;53.42;;;23.50;;
82230;SDS011;71832;45.138;9.816;2023-12-14T02:19:36;49.97;;;22.70;;
82230;SDS011;71832;45.138;9.816;2023-12-14T02:22:04;53.10;;;23.67;;
82230;SDS011;71832;45.138;9.816;2023-12-14T02:24:31;48.33;;;21.73;;
82230;SDS011;71832;45.138;9.816;2023-12-14T02:26:59;47.22;;;22.77;;
82230;SDS011;71832;45.138;9.816;2023-12-14T02:29:28;50.33;;;22.20;;
82230;SDS011;71832;45.138;9.816;2023-12-14T02:31:56;54.63;;;23.98;;
82230;SDS011;71832;45.138;9.816;2023-12-14T02:34:24;43.53;;;21.38;;
82230;SDS011;71832;45.138;9.816;2023-12-14T02:36:52;40.17;;;18.80;;
82230;SDS011;71832;45.138;9.816;2023-12-14T02:39:20;49.60;;;21.42;;
82230;SDS011;71832;45.138;9.816;2023-12-14T02:41:48;49.75;;;22.23;;
82230;SDS011;71832;45.138;9.816;2023-12-14T02:44:16;47.95;;;21.15;;
82230;SDS011;71832;45.138;9.816;2023-12-14T02:46:43;51.38;;;22.98;;
82230;SDS011;71832;45.138;9.816;2023-12-14T02:49:11;54.47;;;23.52;;
82230;SDS011;71832;45.138;9.816;2023-12-14T02:51:39;49.67;;;22.35;;
82230;SDS011;71832;45.138;9.816;2023-12-14T02:54:07;47.45;;;21.60;;
82230;SDS011;71832;45.138;9.816;2023-12-14T02:56:35;52.63;;;22.08;;
82230;SDS011;71832;45.138;9.816;2023-12-14T02:59:03;55.25;;;22.98;;
82230;SDS011;71832;45.138;9.816;2023-12-14T03:01:31;56.00;;;24.27;;
82230;SDS011;71832;45.138;9.816;2023-12-14T03:03:59;49.22;;;23.05;;
82230;SDS011;71832;45.138;9.816;2023-12-14T03:06:28;55.10;;;23.65;;
82230;SDS011;71832;45.138;9.816;2023-12-14T03:08:56;55.85;;;23.45;;
82230;SDS011;71832;45.138;9.816;2023-12-14T03:11:24;57.00;;;22.48;;
82230;SDS011;71832;45.138;9.816;2023-12-14T03:13:52;59.72;;;24.70;;
82230;SDS011;71832;45.138;9.816;2023-12-14T03:16:23;57.63;;;24.38;;
82230;SDS011;71832;45.138;9.816;2023-12-14T03:18:51;59.40;;;23.17;;
82230;SDS011;71832;45.138;9.816;2023-12-14T03:21:19;53.70;;;24.15;;
82230;SDS011;71832;45.138;9.816;2023-12-14T03:23:47;55.90;;;24.02;;
82230;SDS011;71832;45.138;9.816;2023-12-14T03:26:15;62.38;;;23.50;;
82230;SDS011;71832;45.138;9.816;2023-12-14T03:28:43;57.33;;;23.70;;
82230;SDS011;71832;45.138;9.816;2023-12-14T03:31:12;61.03;;;24.08;;
82230;SDS011;71832;45.138;9.816;2023-12-14T03:33:41;57.78;;;23.35;;
82230;SDS011;71832;45.138;9.816;2023-12-14T03:36:09;55.65;;;23.83;;
82230;SDS011;71832;45.138;9.816;2023-12-14T03:38:37;53.25;;;21.55;;
82230;SDS011;71832;45.138;9.816;2023-12-14T03:41:05;59.67;;;24.27;;
82230;SDS011;71832;45.138;9.816;2023-12-14T03:43:33;56.80;;;23.92;;
82230;SDS011;71832;45.138;9.816;2023-12-14T03:46:01;55.95;;;23.20;;
82230;SDS011;71832;45.138;9.816;2023-12-14T03:48:28;66.68;;;25.33;;
82230;SDS011;71832;45.138;9.816;2023-12-14T03:50:56;54.67;;;23.38;;
82230;SDS011;71832;45.138;9.816;2023-12-14T03:53:24;71.07;;;24.67;;
82230;SDS011;71832;45.138;9.816;2023-12-14T03:55:52;66.90;;;25.45;;
82230;SDS011;71832;45.138;9.816;2023-12-14T03:58:21;63.30;;;25.77;;
82230;SDS011;71832;45.138;9.816;2023-12-14T04:00:49;68.05;;;26.08;;
82230;SDS011;71832;45.138;9.816;2023-12-14T04:03:17;65.93;;;25.38;;
82230;SDS011;71832;45.138;9.816;2023-12-14T04:05:45;62.55;;;26.10;;
82230;SDS011;71832;45.138;9.816;2023-12-14T04:08:12;69.40;;;27.48;;
82230;SDS011;71832;45.138;9.816;2023-12-14T04:10:39;56.20;;;24.17;;
82230;SDS011;71832;45.138;9.816;2023-12-14T04:13:07;59.83;;;23.65;;
82230;SDS011;71832;45.138;9.816;2023-12-14T04:15:34;58.33;;;23.75;;
82230;SDS011;71832;45.138;9.816;2023-12-14T04:18:02;54.97;;;23.20;;
82230;SDS011;71832;45.138;9.816;2023-12-14T04:20:30;62.38;;;24.38;;
82230;SDS011;71832;45.138;9.816;2023-12-14T04:22:58;55.65;;;23.88;;
82230;SDS011;71832;45.138;9.816;2023-12-14T04:25:25;57.80;;;24.02;;
82230;SDS011;71832;45.138;9.816;2023-12-14T04:27:52;57.60;;;23.50;;
82230;SDS011;71832;45.138;9.816;2023-12-14T04:30:20;61.08;;;24.23;;
82230;SDS011;71832;45.138;9.816;2023-12-14T04:32:48;56.78;;;25.40;;
82230;SDS011;71832;45.138;9.816;2023-12-14T04:35:16;55.67;;;23.88;;
82230;SDS011;71832;45.138;9.816;2023-12-14T04:37:44;62.13;;;25.55;;
82230;SDS011;71832;45.138;9.816;2023-12-14T04:40:11;59.20;;;25.75;;
82230;SDS011;71832;45.138;9.816;2023-12-14T04:42:39;59.25;;;24.40;;
82230;SDS011;71832;45.138;9.816;2023-12-14T04:45:07;56.25;;;23.55;;
82230;SDS011;71832;45.138;9.816;2023-12-14T04:47:35;56.80;;;23.30;;
82230;SDS011;71832;45.138;9.816;2023-12-14T04:50:03;60.30;;;23.45;;
82230;SDS011;71832;45.138;9.816;2023-12-14T04:52:32;55.90;;;24.55;;
82230;SDS011;71832;45.138;9.816;2023-12-14T04:55:00;57.20;;;23.55;;
82230;SDS011;71832;45.138;9.816;2023-12-14T04:57:27;51.67;;;22.42;;
82230;SDS011;71832;45.138;9.816;2023-12-14T04:59:55;56.30;;;22.25;;
82230;SDS011;71832;45.138;9.816;2023-12-14T05:02:23;58.08;;;23.48;;
82230;SDS011;71832;45.138;9.816;2023-12-14T05:04:51;58.20;;;23.25;;
82230;SDS011;71832;45.138;9.816;2023-12-14T05:07:19;53.50;;;23.63;;
82230;SDS011;71832;45.138;9.816;2023-12-14T05:09:48;60.28;;;24.45;;
82230;SDS011;71832;45.138;9.816;2023-12-14T05:12:16;54.03;;;23.77;;
82230;SDS011;71832;45.138;9.816;2023-12-14T05:14:44;53.47;;;23.85;;
82230;SDS011;71832;45.138;9.816;2023-12-14T05:17:12;63.67;;;24.45;;
82230;SDS011;71832;45.138;9.816;2023-12-14T05:19:40;53.03;;;23.05;;
82230;SDS011;71832;45.138;9.816;2023-12-14T05:22:08;53.58;;;23.52;;
82230;SDS011;71832;45.138;9.816;2023-12-14T05:24:36;58.75;;;23.52;;
82230;SDS011;71832;45.138;9.816;2023-12-14T05:27:04;56.95;;;24.27;;
82230;SDS011;71832;45.138;9.816;2023-12-14T05:29:32;54.15;;;23.38;;
82230;SDS011;71832;45.138;9.816;2023-12-14T05:32:00;59.03;;;24.35;;
82230;SDS011;71832;45.138;9.816;2023-12-14T05:34:28;57.65;;;23.67;;
82230;SDS011;71832;45.138;9.816;2023-12-14T05:36:56;55.10;;;22.52;;
82230;SDS011;71832;45.138;9.816;2023-12-14T05:39:24;59.83;;;23.45;;
82230;SDS011;71832;45.138;9.816;2023-12-14T05:41:52;54.63;;;22.77;;
82230;SDS011;71832;45.138;9.816;2023-12-14T05:44:20;56.22;;;24.38;;
82230;SDS011;71832;45.138;9.816;2023-12-14T05:46:49;55.92;;;24.70;;
82230;SDS011;71832;45.138;9.816;2023-12-14T05:49:17;52.30;;;22.52;;
82230;SDS011;71832;45.138;9.816;2023-12-14T05:51:45;53.22;;;22.10;;
82230;SDS011;71832;45.138;9.816;2023-12-14T05:54:13;51.15;;;22.08;;
82230;SDS011;71832;45.138;9.816;2023-12-14T05:56:41;53.33;;;22.98;;
82230;SDS011;71832;45.138;9.816;2023-12-14T05:59:10;48.88;;;21.65;;
82230;SDS011;71832;45.138;9.816;2023-12-14T06:01:38;51.25;;;21.30;;
82230;SDS011;71832;45.138;9.816;2023-12-14T06:04:06;53.53;;;21.88;;
82230;SDS011;71832;45.138;9.816;2023-12-14T06:06:34;51.95;;;22.05;;
82230;SDS011;71832;45.138;9.816;2023-12-14T06:09:05;53.95;;;21.23;;
82230;SDS011;71832;45.138;9.816;2023-12-14T06:11:34;49.08;;;22.27;;
82230;SDS011;71832;45.138;9.816;2023-12-14T06:14:02;51.70;;;21.35;;
82230;SDS011;71832;45.138;9.816;2023-12-14T06:16:31;58.78;;;24.38;;
82230;SDS011;71832;45.138;9.816;2023-12-14T06:18:59;57.88;;;21.95;;
82230;SDS011;71832;45.138;9.816;2023-12-14T06:21:27;55.42;;;22.95;;
82230;SDS011;71832;45.138;9.816;2023-12-14T06:23:55;56.63;;;21.35;;
82230;SDS011;71832;45.138;9.816;2023-12-14T06:26:25;59.13;;;21.50;;
82230;SDS011;71832;45.138;9.816;2023-12-14T06:28:53;53.83;;;21.38;;
82230;SDS011;71832;45.138;9.816;2023-12-14T06:31:21;53.17;;;22.70;;
82230;SDS011;71832;45.138;9.816;2023-12-14T06:33:50;54.95;;;22.35;;
82230;SDS011;71832;45.138;9.816;2023-12-14T06:36:18;50.15;;;22.38;;
82230;SDS011;71832;45.138;9.816;2023-12-14T06:38:46;59.33;;;23.45;;
82230;SDS011;71832;45.138;9.816;2023-12-14T06:41:18;54.78;;;22.42;;
82230;SDS011;71832;45.138;9.816;2023-12-14T06:43:48;57.10;;;22.20;;
82230;SDS011;71832;45.138;9.816;2023-12-14T06:46:16;57.22;;;22.45;;
82230;SDS011;71832;45.138;9.816;2023-12-14T06:48:45;55.30;;;22.65;;
82230;SDS011;71832;45.138;9.816;2023-12-14T06:51:13;58.00;;;22.48;;
82230;SDS011;71832;45.138;9.816;2023-12-14T06:53:41;56.65;;;22.60;;
82230;SDS011;71832;45.138;9.816;2023-12-14T06:56:11;53.45;;;22.55;;
82230;SDS011;71832;45.138;9.816;2023-12-14T06:58:40;54.17;;;22.58;;
82230;SDS011;71832;45.138;9.816;2023-12-14T07:01:13;55.47;;;22.77;;
82230;SDS011;71832;45.138;9.816;2023-12-14T07:03:42;56.35;;;23.08;;
82230;SDS011;71832;45.138;9.816;2023-12-14T07:06:11;52.38;;;20.75;;
82230;SDS011;71832;45.138;9.816;2023-12-14T07:08:41;57.00;;;24.00;;
82230;SDS011;71832;45.138;9.816;2023-12-14T07:11:09;60.47;;;23.58;;
82230;SDS011;71832;45.138;9.816;2023-12-14T07:13:38;57.78;;;23.05;;
82230;SDS011;71832;45.138;9.816;2023-12-14T07:16:07;53.03;;;21.10;;
82230;SDS011;71832;45.138;9.816;2023-12-14T07:18:37;55.17;;;22.98;;
82230;SDS011;71832;45.138;9.816;2023-12-14T07:21:07;55.08;;;22.42;;
82230;SDS011;71832;45.138;9.816;2023-12-14T07:23:36;53.95;;;23.13;;
82230;SDS011;71832;45.138;9.816;2023-12-14T07:26:04;56.55;;;22.33;;
82230;SDS011;71832;45.138;9.816;2023-12-14T07:28:32;58.63;;;22.45;;
82230;SDS011;71832;45.138;9.816;2023-12-14T07:31:01;53.85;;;22.30;;
82230;SDS011;71832;45.138;9.816;2023-12-14T07:33:29;54.65;;;22.02;;
82230;SDS011;71832;45.138;9.816;2023-12-14T07:35:57;52.72;;;22.48;;
82230;SDS011;71832;45.138;9.816;2023-12-14T07:38:25;51.45;;;20.55;;
82230;SDS011;71832;45.138;9.816;2023-12-14T07:40:53;52.35;;;22.75;;
82230;SDS011;71832;45.138;9.816;2023-12-14T07:43:22;48.20;;;21.92;;
82230;SDS011;71832;45.138;9.816;2023-12-14T07:45:50;54.67;;;22.13;;
82230;SDS011;71832;45.138;9.816;2023-12-14T07:48:19;53.28;;;21.55;;
82230;SDS011;71832;45.138;9.816;2023-12-14T07:50:47;52.08;;;21.02;;
82230;SDS011;71832;45.138;9.816;2023-12-14T07:53:15;56.08;;;21.33;;
82230;SDS011;71832;45.138;9.816;2023-12-14T07:55:44;52.00;;;21.88;;
82230;SDS011;71832;45.138;9.816;2023-12-14T07:58:13;53.05;;;21.20;;
82230;SDS011;71832;45.138;9.816;2023-12-14T08:00:41;62.10;;;23.10;;
82230;SDS011;71832;45.138;9.816;2023-12-14T08:03:10;55.90;;;21.60;;
82230;SDS011;71832;45.138;9.816;2023-12-14T08:05:39;50.08;;;21.50;;
82230;SDS011;71832;45.138;9.816;2023-12-14T08:08:08;55.80;;;22.52;;
82230;SDS011;71832;45.138;9.816;2023-12-14T08:10:36;65.05;;;21.92;;
82230;SDS011;71832;45.138;9.816;2023-12-14T08:13:05;53.67;;;21.60;;
82230;SDS011;71832;45.138;9.816;2023-12-14T08:15:34;51.08;;;20.45;;
82230;SDS011;71832;45.138;9.816;2023-12-14T08:18:02;52.03;;;20.98;;
82230;SDS011;71832;45.138;9.816;2023-12-14T08:20:30;51.78;;;21.50;;
82230;SDS011;71832;45.138;9.816;2023-12-14T08:22:58;52.42;;;20.70;;
82230;SDS011;71832;45.138;9.816;2023-12-14T08:25:26;50.45;;;20.05;;
82230;SDS011;71832;45.138;9.816;2023-12-14T08:27:55;49.55;;;20.50;;
82230;SDS011;71832;45.138;9.816;2023-12-14T08:30:23;51.53;;;20.13;;
82230;SDS011;71832;45.138;9.816;2023-12-14T08:32:51;46.53;;;19.65;;
82230;SDS011;71832;45.138;9.816;2023-12-14T08:35:20;42.33;;;19.27;;
82230;SDS011;71832;45.138;9.816;2023-12-14T08:37:49;46.17;;;18.73;;
82230;SDS011;71832;45.138;9.816;2023-12-14T08:40:17;48.00;;;19.63;;
82230;SDS011;71832;45.138;9.816;2023-12-14T08:42:46;48.80;;;20.02;;
82230;SDS011;71832;45.138;9.816;2023-12-14T08:45:15;44.20;;;17.98;;
82230;SDS011;71832;45.138;9.816;2023-12-14T08:47:44;48.63;;;18.55;;
82230;SDS011;71832;45.138;9.816;2023-12-14T08:50:12;38.90;;;17.23;;
82230;SDS011;71832;45.138;9.816;2023-12-14T08:52:41;45.40;;;18.08;;
82230;SDS011;71832;45.138;9.816;2023-12-14T08:55:10;48.90;;;19.63;;
82230;SDS011;71832;45.138;9.816;2023-12-14T08:57:39;49.72;;;19.88;;
82230;SDS011;71832;45.138;9.816;2023-12-14T09:00:07;52.55;;;20.70;;
82230;SDS011;71832;45.138;9.816;2023-12-14T09:02:36;54.70;;;21.50;;
82230;SDS011;71832;45.138;9.816;2023-12-14T09:05:05;53.00;;;22.05;;
82230;SDS011;71832;45.138;9.816;2023-12-14T09:07:34;56.03;;;22.50;;
82230;SDS011;71832;45.138;9.816;2023-12-14T09:10:03;57.05;;;23.48;;
82230;SDS011;71832;45.138;9.816;2023-12-14T09:12:33;55.47;;;23.10;;
82230;SDS011;71832;45.138;9.816;2023-12-14T09:15:02;59.72;;;23.60;;
82230;SDS011;71832;45.138;9.816;2023-12-14T09:17:31;61.17;;;23.58;;
82230;SDS011;71832;45.138;9.816;2023-12-14T09:20:00;58.53;;;24.15;;
82230;SDS011;71832;45.138;9.816;2023-12-14T09:22:31;60.17;;;24.38;;
82230;SDS011;71832;45.138;9.816;2023-12-14T09:24:59;66.18;;;25.27;;
82230;SDS011;71832;45.138;9.816;2023-12-14T09:27:29;69.18;;;26.40;;
82230;SDS011;71832;45.138;9.816;2023-12-14T09:29:58;72.22;;;26.08;;
82230;SDS011;71832;45.138;9.816;2023-12-14T09:32:26;72.10;;;27.55;;
82230;SDS011;71832;45.138;9.816;2023-12-14T09:34:55;68.80;;;27.05;;
82230;SDS011;71832;45.138;9.816;2023-12-14T09:37:24;75.70;;;26.67;;
82230;SDS011;71832;45.138;9.816;2023-12-14T09:39:53;82.55;;;29.00;;
82230;SDS011;71832;45.138;9.816;2023-12-14T09:42:22;79.40;;;30.92;;
82230;SDS011;71832;45.138;9.816;2023-12-14T09:44:51;75.25;;;29.48;;
82230;SDS011;71832;45.138;9.816;2023-12-14T09:47:22;81.90;;;30.77;;
82230;SDS011;71832;45.138;9.816;2023-12-14T09:49:50;79.82;;;29.63;;
82230;SDS011;71832;45.138;9.816;2023-12-14T09:52:20;83.55;;;31.95;;
82230;SDS011;71832;45.138;9.816;2023-12-14T09:54:49;80.40;;;31.17;;
82230;SDS011;71832;45.138;9.816;2023-12-14T09:57:18;75.50;;;30.45;;
82230;SDS011;71832;45.138;9.816;2023-12-14T09:59:51;80.65;;;30.17;;
82230;SDS011;71832;45.138;9.816;2023-12-14T10:02:24;81.25;;;31.55;;
82230;SDS011;71832;45.138;9.816;2023-12-14T10:04:53;76.63;;;29.85;;
82230;SDS011;71832;45.138;9.816;2023-12-14T10:07:22;77.03;;;30.10;;
82230;SDS011;71832;45.138;9.816;2023-12-14T10:09:51;76.50;;;29.05;;
82230;SDS011;71832;45.138;9.816;2023-12-14T10:12:19;75.03;;;27.70;;
82230;SDS011;71832;45.138;9.816;2023-12-14T10:14:48;73.47;;;29.67;;
82230;SDS011;71832;45.138;9.816;2023-12-14T10:17:31;75.40;;;31.88;;
82230;SDS011;71832;45.138;9.816;2023-12-14T10:19:59;72.15;;;28.40;;
82230;SDS011;71832;45.138;9.816;2023-12-14T10:22:30;76.32;;;29.30;;
82230;SDS011;71832;45.138;9.816;2023-12-14T10:24:58;78.32;;;30.08;;
82230;SDS011;71832;45.138;9.816;2023-12-14T10:27:27;76.88;;;30.73;;
82230;SDS011;71832;45.138;9.816;2023-12-14T10:29:58;78.88;;;29.85;;
82230;SDS011;71832;45.138;9.816;2023-12-14T10:32:26;75.80;;;30.00;;
82230;SDS011;71832;45.138;9.816;2023-12-14T10:34:55;81.25;;;33.00;;
82230;SDS011;71832;45.138;9.816;2023-12-14T10:37:24;77.72;;;31.15;;
82230;SDS011;71832;45.138;9.816;2023-12-14T10:39:54;79.68;;;30.20;;
82230;SDS011;71832;45.138;9.816;2023-12-14T10:42:24;79.47;;;30.13;;
82230;SDS011;71832;45.138;9.816;2023-12-14T10:44:55;90.70;;;33.88;;
82230;SDS011;71832;45.138;9.816;2023-12-14T10:47:24;79.97;;;31.05;;
82230;SDS011;71832;45.138;9.816;2023-12-14T10:49:53;76.85;;;32.10;;
82230;SDS011;71832;45.138;9.816;2023-12-14T10:52:23;80.95;;;31.25;;
82230;SDS011;71832;45.138;9.816;2023-12-14T10:54:56;79.97;;;31.15;;
82230;SDS011;71832;45.138;9.816;2023-12-14T10:57:32;80.55;;;31.60;;
82230;SDS011;71832;45.138;9.816;2023-12-14T11:00:02;78.30;;;31.88;;
82230;SDS011;71832;45.138;9.816;2023-12-14T11:02:45;74.18;;;29.85;;
82230;SDS011;71832;45.138;9.816;2023-12-14T11:05:14;72.72;;;30.75;;
82230;SDS011;71832;45.138;9.816;2023-12-14T11:10:12;80.43;;;30.10;;
82230;SDS011;71832;45.138;9.816;2023-12-14T11:15:30;73.28;;;29.90;;
82230;SDS011;71832;45.138;9.816;2023-12-14T11:20:58;73.10;;;28.95;;
82230;SDS011;71832;45.138;9.816;2023-12-14T11:26:09;71.85;;;28.48;;
82230;SDS011;71832;45.138;9.816;2023-12-14T11:28:37;73.05;;;29.45;;
82230;SDS011;71832;45.138;9.816;2023-12-14T11:31:10;72.97;;;30.38;;
82230;SDS011;71832;45.138;9.816;2023-12-14T11:33:39;77.72;;;31.80;;
82230;SDS011;71832;45.138;9.816;2023-12-14T11:36:07;75.18;;;30.60;;
82230;SDS011;71832;45.138;9.816;2023-12-14T11:38:34;76.85;;;30.52;;
82230;SDS011;71832;45.138;9.816;2023-12-14T11:41:02;75.00;;;31.63;;
82230;SDS011;71832;45.138;9.816;2023-12-14T11:43:38;82.07;;;31.80;;
82230;SDS011;71832;45.138;9.816;2023-12-14T11:46:07;74.45;;;30.63;;
82230;SDS011;71832;45.138;9.816;2023-12-14T11:48:35;73.80;;;31.73;;
82230;SDS011;71832;45.138;9.816;2023-12-14T11:51:03;77.05;;;31.25;;
82230;SDS011;71832;45.138;9.816;2023-12-14T11:53:31;82.13;;;31.30;;
82230;SDS011;71832;45.138;9.816;2023-12-14T11:56:04;76.15;;;30.20;;
82230;SDS011;71832;45.138;9.816;2023-12-14T11:58:32;82.80;;;32.10;;
82230;SDS011;71832;45.138;9.816;2023-12-14T12:01:20;76.10;;;32.17;;
82230;SDS011;71832;45.138;9.816;2023-12-14T12:03:49;82.80;;;32.05;;
82230;SDS011;71832;45.138;9.816;2023-12-14T12:06:26;79.72;;;32.33;;
82230;SDS011;71832;45.138;9.816;2023-12-14T12:11:24;80.28;;;31.10;;
82230;SDS011;71832;45.138;9.816;2023-12-14T12:13:53;72.88;;;30.80;;
82230;SDS011;71832;45.138;9.816;2023-12-14T12:16:22;84.90;;;31.80;;
82230;SDS011;71832;45.138;9.816;2023-12-14T12:18:50;79.95;;;33.40;;
82230;SDS011;71832;45.138;9.816;2023-12-14T12:21:18;85.95;;;32.72;;
82230;SDS011;71832;45.138;9.816;2023-12-14T12:23:46;75.35;;;32.03;;
82230;SDS011;71832;45.138;9.816;2023-12-14T12:26:14;88.25;;;36.88;;
82230;SDS011;71832;45.138;9.816;2023-12-14T12:28:43;88.75;;;34.40;;
82230;SDS011;71832;45.138;9.816;2023-12-14T12:31:14;79.72;;;34.63;;
82230;SDS011;71832;45.138;9.816;2023-12-14T12:33:42;81.03;;;33.75;;
82230;SDS011;71832;45.138;9.816;2023-12-14T12:36:10;76.25;;;32.65;;
82230;SDS011;71832;45.138;9.816;2023-12-14T12:38:38;88.53;;;35.25;;
82230;SDS011;71832;45.138;9.816;2023-12-14T12:41:06;79.00;;;33.42;;
82230;SDS011;71832;45.138;9.816;2023-12-14T12:43:34;82.18;;;32.67;;
82230;SDS011;71832;45.138;9.816;2023-12-14T12:46:02;84.97;;;34.47;;
82230;SDS011;71832;45.138;9.816;2023-12-14T12:48:30;79.75;;;32.50;;
82230;SDS011;71832;45.138;9.816;2023-12-14T12:50:59;83.43;;;33.15;;
82230;SDS011;71832;45.138;9.816;2023-12-14T12:53:28;79.65;;;33.72;;
82230;SDS011;71832;45.138;9.816;2023-12-14T12:55:56;81.70;;;32.83;;
82230;SDS011;71832;45.138;9.816;2023-12-14T12:58:24;78.75;;;32.60;;
82230;SDS011;71832;45.138;9.816;2023-12-14T13:00:51;84.60;;;34.67;;
82230;SDS011;71832;45.138;9.816;2023-12-14T13:03:18;89.85;;;33.13;;
82230;SDS011;71832;45.138;9.816;2023-12-14T13:05:46;85.65;;;33.15;;
82230;SDS011;71832;45.138;9.816;2023-12-14T13:08:14;83.35;;;34.10;;
82230;SDS011;71832;45.138;9.816;2023-12-14T13:10:41;80.47;;;32.88;;
82230;SDS011;71832;45.138;9.816;2023-12-14T13:13:09;75.82;;;32.53;;
82230;SDS011;71832;45.138;9.816;2023-12-14T13:15:38;77.28;;;33.28;;
82230;SDS011;71832;45.138;9.816;2023-12-14T13:18:07;78.38;;;31.45;;
82230;SDS011;71832;45.138;9.816;2023-12-14T13:20:35;77.10;;;32.17;;
82230;SDS011;71832;45.138;9.816;2023-12-14T13:23:03;80.95;;;30.75;;
82230;SDS011;71832;45.138;9.816;2023-12-14T13:25:32;71.50;;;30.25;;
82230;SDS011;71832;45.138;9.816;2023-12-14T13:28:01;75.53;;;32.03;;
82230;SDS011;71832;45.138;9.816;2023-12-14T13:30:30;79.18;;;31.80;;
82230;SDS011;71832;45.138;9.816;2023-12-14T13:32:58;77.70;;;30.58;;
82230;SDS011;71832;45.138;9.816;2023-12-14T13:35:25;73.75;;;31.38;;
82230;SDS011;71832;45.138;9.816;2023-12-14T13:37:55;78.82;;;31.65;;
82230;SDS011;71832;45.138;9.816;2023-12-14T13:40:23;76.07;;;32.15;;
82230;SDS011;71832;45.138;9.816;2023-12-14T13:42:51;78.00;;;32.58;;
82230;SDS011;71832;45.138;9.816;2023-12-14T13:45:20;79.72;;;32.45;;
82230;SDS011;71832;45.138;9.816;2023-12-14T13:47:48;74.07;;;31.60;;
82230;SDS011;71832;45.138;9.816;2023-12-14T13:50:17;75.93;;;31.90;;
82230;SDS011;71832;45.138;9.816;2023-12-14T13:52:45;72.53;;;32.35;;
82230;SDS011;71832;45.138;9.816;2023-12-14T13:55:13;79.20;;;32.03;;
82230;SDS011;71832;45.138;9.816;2023-12-14T13:57:41;79.55;;;32.28;;
82230;SDS011;71832;45.138;9.816;2023-12-14T14:00:09;78.38;;;32.58;;
82230;SDS011;71832;45.138;9.816;2023-12-14T14:02:38;73.68;;;32.28;;
82230;SDS011;71832;45.138;9.816;2023-12-14T14:05:07;70.95;;;32.75;;
82230;SDS011;71832;45.138;9.816;2023-12-14T14:07:36;79.22;;;33.33;;
82230;SDS011;71832;45.138;9.816;2023-12-14T14:10:04;85.88;;;32.90;;
82230;SDS011;71832;45.138;9.816;2023-12-14T14:12:34;74.82;;;31.38;;
82230;SDS011;71832;45.138;9.816;2023-12-14T14:15:03;80.43;;;33.88;;
82230;SDS011;71832;45.138;9.816;2023-12-14T14:17:32;77.78;;;32.88;;
82230;SDS011;71832;45.138;9.816;2023-12-14T14:20:00;108.88;;;38.78;;
82230;SDS011;71832;45.138;9.816;2023-12-14T14:22:30;130.50;;;44.75;;
82230;SDS011;71832;45.138;9.816;2023-12-14T14:24:59;119.70;;;40.63;;
82230;SDS011;71832;45.138;9.816;2023-12-14T14:27:28;149.65;;;44.50;;
82230;SDS011;71832;45.138;9.816;2023-12-14T14:29:56;112.72;;;38.65;;
82230;SDS011;71832;45.138;9.816;2023-12-14T14:32:25;130.63;;;43.35;;
82230;SDS011;71832;45.138;9.816;2023-12-14T14:34:53;110.82;;;39.10;;
82230;SDS011;71832;45.138;9.816;2023-12-14T14:37:24;95.28;;;36.45;;
82230;SDS011;71832;45.138;9.816;2023-12-14T14:39:52;90.43;;;37.20;;
82230;SDS011;71832;45.138;9.816;2023-12-14T14:42:21;82.20;;;33.55;;